sensor_id;sensor_type;location;lat;lon;timestamp;pressure;altitude;pressure_sealevel;temperature
69415;BMP280;56608;43.530;-5.652;2022-08-11T00:00:16;101328.25;;;24.06
69415;BMP280;56608;43.530;-5.652;2022-08-11T00:01:18;101322.75;;;24.06
69415;BMP280;56608;43.530;-5.652;2022-08-11T00:02:29;101315.91;;;24.12
69415;BMP280;56608;43.530;-5.652;2022-08-11T00:03:31;101308.81;;;24.23
69415;BMP280;56608;43.530;-5.652;2022-08-11T00:04:33;101305.28;;;24.28
69415;BMP280;56608;43.530;-5.652;2022-08-11T00:05:47;101295.44;;;24.32
69415;BMP280;56608;43.530;-5.652;2022-08-11T00:06:47;101298.44;;;24.34
69415;BMP280;56608;43.530;-5.652;2022-08-11T00:07:49;101297.19;;;24.35
69415;BMP280;56608;43.530;-5.652;2022-08-11T00:08:50;101293.63;;;24.40
69415;BMP280;56608;43.530;-5.652;2022-08-11T00:09:51;101290.06;;;24.45
69415;BMP280;56608;43.530;-5.652;2022-08-11T00:10:59;101295.97;;;24.49
69415;BMP280;56608;43.530;-5.652;2022-08-11T00:12:00;101293.66;;;24.53
69415;BMP280;56608;43.530;-5.652;2022-08-11T00:13:02;101284.16;;;24.54
69415;BMP280;56608;43.530;-5.652;2022-08-11T00:14:03;101298.66;;;24.55
69415;BMP280;56608;43.530;-5.652;2022-08-11T00:15:04;101285.66;;;24.55
69415;BMP280;56608;43.530;-5.652;2022-08-11T00:16:10;101289.88;;;24.56
69415;BMP280;56608;43.530;-5.652;2022-08-11T00:17:12;101286.91;;;24.54
69415;BMP280;56608;43.530;-5.652;2022-08-11T00:18:13;101285.88;;;24.57
69415;BMP280;56608;43.530;-5.652;2022-08-11T00:19:18;101290.31;;;24.60
69415;BMP280;56608;43.530;-5.652;2022-08-11T00:20:20;101283.34;;;24.59
69415;BMP280;56608;43.530;-5.652;2022-08-11T00:21:21;101290.09;;;24.58
69415;BMP280;56608;43.530;-5.652;2022-08-11T00:22:21;101277.09;;;24.59
69415;BMP280;56608;43.530;-5.652;2022-08-11T00:23:22;101271.81;;;24.61
69415;BMP280;56608;43.530;-5.652;2022-08-11T00:24:23;101268.56;;;24.62
69415;BMP280;56608;43.530;-5.652;2022-08-11T00:25:24;101256.28;;;24.63
69415;BMP280;56608;43.530;-5.652;2022-08-11T00:26:25;101267.06;;;24.61
69415;BMP280;56608;43.530;-5.652;2022-08-11T00:27:33;101253.13;;;24.59
69415;BMP280;56608;43.530;-5.652;2022-08-11T00:28:34;101256.09;;;24.61
69415;BMP280;56608;43.530;-5.652;2022-08-11T00:29:34;101252.06;;;24.62
69415;BMP280;56608;43.530;-5.652;2022-08-11T00:30:38;101246.59;;;24.62
69415;BMP280;56608;43.530;-5.652;2022-08-11T00:31:43;101252.06;;;24.62
69415;BMP280;56608;43.530;-5.652;2022-08-11T00:32:44;101250.78;;;24.63
69415;BMP280;56608;43.530;-5.652;2022-08-11T00:33:45;101255.56;;;24.63
69415;BMP280;56608;43.530;-5.652;2022-08-11T00:34:46;101248.03;;;24.63
69415;BMP280;56608;43.530;-5.652;2022-08-11T00:35:48;101245.91;;;24.56
69415;BMP280;56608;43.530;-5.652;2022-08-11T00:36:50;101247.41;;;24.57
69415;BMP280;56608;43.530;-5.652;2022-08-11T00:37:52;101242.84;;;24.60
69415;BMP280;56608;43.530;-5.652;2022-08-11T00:38:53;101233.66;;;24.57
69415;BMP280;56608;43.530;-5.652;2022-08-11T00:39:55;101231.66;;;24.58
69415;BMP280;56608;43.530;-5.652;2022-08-11T00:45:35;101244.03;;;24.64
69415;BMP280;56608;43.530;-5.652;2022-08-11T00:49:08;101251.78;;;24.66
69415;BMP280;56608;43.530;-5.652;2022-08-11T00:57:38;101237.75;;;24.70
69415;BMP280;56608;43.530;-5.652;2022-08-11T01:02:40;101219.25;;;24.70
69415;BMP280;56608;43.530;-5.652;2022-08-11T01:05:30;101214.28;;;24.68
69415;BMP280;56608;43.530;-5.652;2022-08-11T01:10:24;101208.50;;;24.53
69415;BMP280;56608;43.530;-5.652;2022-08-11T01:12:31;101215.91;;;24.58
69415;BMP280;56608;43.530;-5.652;2022-08-11T01:15:23;101216.13;;;24.60
69415;BMP280;56608;43.530;-5.652;2022-08-11T01:24:46;101184.53;;;24.54
69415;BMP280;56608;43.530;-5.652;2022-08-11T01:27:12;101173.53;;;24.54
69415;BMP280;56608;43.530;-5.652;2022-08-11T01:28:33;101171.75;;;24.56
69415;BMP280;56608;43.530;-5.652;2022-08-11T01:35:39;101154.72;;;24.45
69415;BMP280;56608;43.530;-5.652;2022-08-11T01:39:25;101163.91;;;24.47
69415;BMP280;56608;43.530;-5.652;2022-08-11T01:43:28;101152.06;;;24.39
69415;BMP280;56608;43.530;-5.652;2022-08-11T01:45:16;101148.25;;;24.42
69415;BMP280;56608;43.530;-5.652;2022-08-11T01:49:55;101136.59;;;24.23
69415;BMP280;56608;43.530;-5.652;2022-08-11T01:52:18;101118.53;;;24.28
69415;BMP280;56608;43.530;-5.652;2022-08-11T01:59:35;101096.47;;;24.20
69415;BMP280;56608;43.530;-5.652;2022-08-11T02:01:01;101099.41;;;24.22
69415;BMP280;56608;43.530;-5.652;2022-08-11T02:03:37;101086.94;;;24.21
69415;BMP280;56608;43.530;-5.652;2022-08-11T02:04:43;101075.25;;;24.20
69415;BMP280;56608;43.530;-5.652;2022-08-11T02:07:14;101071.09;;;24.14
69415;BMP280;56608;43.530;-5.652;2022-08-11T02:11:00;101082.50;;;24.18
69415;BMP280;56608;43.530;-5.652;2022-08-11T02:13:47;101071.63;;;24.26
69415;BMP280;56608;43.530;-5.652;2022-08-11T02:14:53;101073.87;;;24.27
69415;BMP280;56608;43.530;-5.652;2022-08-11T02:17:21;101083.25;;;24.32
69415;BMP280;56608;43.530;-5.652;2022-08-11T02:18:32;101075.75;;;24.32
69415;BMP280;56608;43.530;-5.652;2022-08-11T02:21:30;101078.63;;;24.27
69415;BMP280;56608;43.530;-5.652;2022-08-11T02:24:36;101070.06;;;24.17
69415;BMP280;56608;43.530;-5.652;2022-08-11T02:26:48;101071.81;;;24.14
69415;BMP280;56608;43.530;-5.652;2022-08-11T02:28:41;101076.56;;;24.14
69415;BMP280;56608;43.530;-5.652;2022-08-11T02:30:23;101075.31;;;24.15
69415;BMP280;56608;43.530;-5.652;2022-08-11T02:33:44;101059.66;;;24.10
69415;BMP280;56608;43.530;-5.652;2022-08-11T02:38:27;101048.47;;;24.08
69415;BMP280;56608;43.530;-5.652;2022-08-11T02:39:37;101043.59;;;24.01
69415;BMP280;56608;43.530;-5.652;2022-08-11T02:40:56;101046.34;;;24.01
69415;BMP280;56608;43.530;-5.652;2022-08-11T02:42:06;101034.31;;;24.04
69415;BMP280;56608;43.530;-5.652;2022-08-11T02:47:08;101036.09;;;23.88
69415;BMP280;56608;43.530;-5.652;2022-08-11T02:52:07;101018.69;;;23.99
69415;BMP280;56608;43.530;-5.652;2022-08-11T02:53:15;101017.50;;;23.94
69415;BMP280;56608;43.530;-5.652;2022-08-11T02:54:22;101008.97;;;23.98
69415;BMP280;56608;43.530;-5.652;2022-08-11T02:57:40;101013.06;;;23.91
69415;BMP280;56608;43.530;-5.652;2022-08-11T03:00:12;101026.06;;;23.91
69415;BMP280;56608;43.530;-5.652;2022-08-11T03:01:17;101019.06;;;23.90
69415;BMP280;56608;43.530;-5.652;2022-08-11T03:03:28;101011.81;;;23.92
69415;BMP280;56608;43.530;-5.652;2022-08-11T03:05:53;101025.00;;;23.94
69415;BMP280;56608;43.530;-5.652;2022-08-11T03:08:10;101042.22;;;23.94
69415;BMP280;56608;43.530;-5.652;2022-08-11T03:12:15;101029.91;;;23.82
69415;BMP280;56608;43.530;-5.652;2022-08-11T03:14:12;101029.34;;;23.70
69415;BMP280;56608;43.530;-5.652;2022-08-11T03:15:28;101019.84;;;23.71
69415;BMP280;56608;43.530;-5.652;2022-08-11T03:17:15;101018.91;;;23.82
69415;BMP280;56608;43.530;-5.652;2022-08-11T03:18:22;101004.69;;;23.84
69415;BMP280;56608;43.530;-5.652;2022-08-11T03:19:48;101006.37;;;23.87
69415;BMP280;56608;43.530;-5.652;2022-08-11T03:22:24;100990.78;;;23.82
69415;BMP280;56608;43.530;-5.652;2022-08-11T03:25:48;100955.75;;;23.88
69415;BMP280;56608;43.530;-5.652;2022-08-11T03:27:03;100953.03;;;23.88
69415;BMP280;56608;43.530;-5.652;2022-08-11T03:29:07;100957.62;;;23.80
69415;BMP280;56608;43.530;-5.652;2022-08-11T03:30:17;100968.69;;;23.74
69415;BMP280;56608;43.530;-5.652;2022-08-11T03:31:24;100965.66;;;23.78
69415;BMP280;56608;43.530;-5.652;2022-08-11T03:32:29;100963.09;;;23.80
69415;BMP280;56608;43.530;-5.652;2022-08-11T03:33:32;100953.19;;;23.77
69415;BMP280;56608;43.530;-5.652;2022-08-11T03:34:53;100936.62;;;23.82
69415;BMP280;56608;43.530;-5.652;2022-08-11T03:41:13;100948.13;;;23.81
69415;BMP280;56608;43.530;-5.652;2022-08-11T03:42:55;100947.16;;;23.78
69415;BMP280;56608;43.530;-5.652;2022-08-11T03:44:06;100955.81;;;23.69
69415;BMP280;56608;43.530;-5.652;2022-08-11T03:46:33;100950.56;;;23.52
69415;BMP280;56608;43.530;-5.652;2022-08-11T03:48:48;100949.78;;;23.39
69415;BMP280;56608;43.530;-5.652;2022-08-11T03:53:22;100938.87;;;23.52
69415;BMP280;56608;43.530;-5.652;2022-08-11T03:54:37;100938.00;;;23.44
69415;BMP280;56608;43.530;-5.652;2022-08-11T03:59:35;100948.16;;;23.30
69415;BMP280;56608;43.530;-5.652;2022-08-11T04:10:47;100942.59;;;23.36
69415;BMP280;56608;43.530;-5.652;2022-08-11T04:13:08;100945.94;;;23.28
69415;BMP280;56608;43.530;-5.652;2022-08-11T04:21:11;100951.44;;;23.10
69415;BMP280;56608;43.530;-5.652;2022-08-11T04:22:21;100948.53;;;23.02
69415;BMP280;56608;43.530;-5.652;2022-08-11T04:23:35;100948.75;;;23.04
69415;BMP280;56608;43.530;-5.652;2022-08-11T04:29:38;100962.37;;;22.91
69415;BMP280;56608;43.530;-5.652;2022-08-11T04:31:04;100962.97;;;22.84
69415;BMP280;56608;43.530;-5.652;2022-08-11T04:37:10;100968.34;;;22.90
69415;BMP280;56608;43.530;-5.652;2022-08-11T04:39:42;100976.22;;;22.99
69415;BMP280;56608;43.530;-5.652;2022-08-11T04:48:09;100984.31;;;23.10
69415;BMP280;56608;43.530;-5.652;2022-08-11T04:49:53;100983.34;;;23.07
69415;BMP280;56608;43.530;-5.652;2022-08-11T04:56:19;100982.66;;;23.20
69415;BMP280;56608;43.530;-5.652;2022-08-11T04:59:30;100988.28;;;23.09
69415;BMP280;56608;43.530;-5.652;2022-08-11T05:12:48;100992.47;;;23.34
69415;BMP280;56608;43.530;-5.652;2022-08-11T05:13:59;100984.75;;;23.33
69415;BMP280;56608;43.530;-5.652;2022-08-11T05:15:35;100985.66;;;23.22
69415;BMP280;56608;43.530;-5.652;2022-08-11T05:17:08;100977.31;;;23.09
69415;BMP280;56608;43.530;-5.652;2022-08-11T05:18:28;100987.28;;;23.12
69415;BMP280;56608;43.530;-5.652;2022-08-11T05:19:47;100986.69;;;23.19
69415;BMP280;56608;43.530;-5.652;2022-08-11T05:21:07;100985.84;;;23.24
69415;BMP280;56608;43.530;-5.652;2022-08-11T05:22:27;100988.28;;;23.27
69415;BMP280;56608;43.530;-5.652;2022-08-11T05:23:48;100992.53;;;23.28
69415;BMP280;56608;43.530;-5.652;2022-08-11T05:25:10;100994.81;;;23.24
69415;BMP280;56608;43.530;-5.652;2022-08-11T05:26:29;100984.16;;;23.21
69415;BMP280;56608;43.530;-5.652;2022-08-11T05:29:35;100989.19;;;23.17
69415;BMP280;56608;43.530;-5.652;2022-08-11T05:31:14;100987.66;;;23.21
69415;BMP280;56608;43.530;-5.652;2022-08-11T05:32:35;100986.53;;;23.30
69415;BMP280;56608;43.530;-5.652;2022-08-11T05:35:56;100981.72;;;23.36
69415;BMP280;56608;43.530;-5.652;2022-08-11T05:36:59;100978.25;;;23.36
69415;BMP280;56608;43.530;-5.652;2022-08-11T05:38:02;100969.78;;;23.34
69415;BMP280;56608;43.530;-5.652;2022-08-11T05:39:32;100980.00;;;23.33
69415;BMP280;56608;43.530;-5.652;2022-08-11T05:40:51;100980.22;;;23.35
69415;BMP280;56608;43.530;-5.652;2022-08-11T05:42:11;100980.16;;;23.41
69415;BMP280;56608;43.530;-5.652;2022-08-11T05:43:30;100989.34;;;23.43
69415;BMP280;56608;43.530;-5.652;2022-08-11T05:44:50;100992.31;;;23.45
69415;BMP280;56608;43.530;-5.652;2022-08-11T05:46:11;100988.31;;;23.46
69415;BMP280;56608;43.530;-5.652;2022-08-11T05:47:30;100989.59;;;23.45
69415;BMP280;56608;43.530;-5.652;2022-08-11T05:48:51;100981.34;;;23.45
69415;BMP280;56608;43.530;-5.652;2022-08-11T05:50:10;100982.31;;;23.48
69415;BMP280;56608;43.530;-5.652;2022-08-11T05:51:34;100981.03;;;23.49
69415;BMP280;56608;43.530;-5.652;2022-08-11T05:52:53;100981.25;;;23.51
69415;BMP280;56608;43.530;-5.652;2022-08-11T05:54:13;100983.78;;;23.49
69415;BMP280;56608;43.530;-5.652;2022-08-11T05:55:37;100976.59;;;23.46
69415;BMP280;56608;43.530;-5.652;2022-08-11T05:56:57;100982.81;;;23.46
69415;BMP280;56608;43.530;-5.652;2022-08-11T05:58:00;100984.38;;;23.42
69415;BMP280;56608;43.530;-5.652;2022-08-11T05:59:01;100983.13;;;23.43
69415;BMP280;56608;43.530;-5.652;2022-08-11T06:00:05;100980.16;;;23.41
69415;BMP280;56608;43.530;-5.652;2022-08-11T06:01:09;100983.03;;;23.48
69415;BMP280;56608;43.530;-5.652;2022-08-11T06:02:11;100984.00;;;23.51
69415;BMP280;56608;43.530;-5.652;2022-08-11T06:03:21;100979.03;;;23.49
69415;BMP280;56608;43.530;-5.652;2022-08-11T06:04:24;100979.25;;;23.51
69415;BMP280;56608;43.530;-5.652;2022-08-11T06:05:35;100987.25;;;23.49
69415;BMP280;56608;43.530;-5.652;2022-08-11T06:06:36;100986.53;;;23.49
69415;BMP280;56608;43.530;-5.652;2022-08-11T06:07:39;100985.03;;;23.48
69415;BMP280;56608;43.530;-5.652;2022-08-11T06:08:39;100989.47;;;23.51
69415;BMP280;56608;43.530;-5.652;2022-08-11T06:10:45;100981.25;;;23.51
69415;BMP280;56608;43.530;-5.652;2022-08-11T06:11:46;100984.00;;;23.51
69415;BMP280;56608;43.530;-5.652;2022-08-11T06:12:49;100983.25;;;23.50
69415;BMP280;56608;43.530;-5.652;2022-08-11T06:13:51;100980.31;;;23.48
69415;BMP280;56608;43.530;-5.652;2022-08-11T06:14:53;100987.03;;;23.47
69415;BMP280;56608;43.530;-5.652;2022-08-11T06:15:54;100975.44;;;23.41
69415;BMP280;56608;43.530;-5.652;2022-08-11T06:16:57;100978.06;;;23.47
69415;BMP280;56608;43.530;-5.652;2022-08-11T06:18:00;100980.06;;;23.46
69415;BMP280;56608;43.530;-5.652;2022-08-11T06:19:02;100977.25;;;23.52
69415;BMP280;56608;43.530;-5.652;2022-08-11T06:20:04;100982.63;;;23.57
69415;BMP280;56608;43.530;-5.652;2022-08-11T06:21:08;100980.63;;;23.58
69415;BMP280;56608;43.530;-5.652;2022-08-11T06:22:09;100982.87;;;23.59
69415;BMP280;56608;43.530;-5.652;2022-08-11T06:23:10;100987.69;;;23.53
69415;BMP280;56608;43.530;-5.652;2022-08-11T06:24:14;100988.44;;;23.54
69415;BMP280;56608;43.530;-5.652;2022-08-11T06:25:14;100986.37;;;23.60
69415;BMP280;56608;43.530;-5.652;2022-08-11T06:26:15;100984.59;;;23.62
69415;BMP280;56608;43.530;-5.652;2022-08-11T06:27:20;100997.78;;;23.64
69415;BMP280;56608;43.530;-5.652;2022-08-11T06:28:28;100998.50;;;23.64
69415;BMP280;56608;43.530;-5.652;2022-08-11T06:29:29;100998.50;;;23.64
69415;BMP280;56608;43.530;-5.652;2022-08-11T06:30:40;100994.00;;;23.67
69415;BMP280;56608;43.530;-5.652;2022-08-11T06:31:41;101001.50;;;23.66
69415;BMP280;56608;43.530;-5.652;2022-08-11T06:32:42;100997.91;;;23.71
69415;BMP280;56608;43.530;-5.652;2022-08-11T06:36:56;101008.50;;;23.81
69415;BMP280;56608;43.530;-5.652;2022-08-11T06:38:09;101005.31;;;23.77
69415;BMP280;56608;43.530;-5.652;2022-08-11T06:39:26;101008.88;;;23.71
69415;BMP280;56608;43.530;-5.652;2022-08-11T06:40:40;101010.34;;;23.72
69415;BMP280;56608;43.530;-5.652;2022-08-11T06:41:47;101003.37;;;23.71
69415;BMP280;56608;43.530;-5.652;2022-08-11T06:43:01;101008.56;;;23.75
69415;BMP280;56608;43.530;-5.652;2022-08-11T06:46:31;101004.50;;;23.82
69415;BMP280;56608;43.530;-5.652;2022-08-11T06:47:32;101008.25;;;23.79
69415;BMP280;56608;43.530;-5.652;2022-08-11T06:48:33;101012.72;;;23.82
69415;BMP280;56608;43.530;-5.652;2022-08-11T06:49:36;101011.66;;;23.85
69415;BMP280;56608;43.530;-5.652;2022-08-11T06:50:57;101009.44;;;23.83
69415;BMP280;56608;43.530;-5.652;2022-08-11T06:52:13;101015.88;;;23.86
69415;BMP280;56608;43.530;-5.652;2022-08-11T06:53:16;101014.62;;;23.87
69415;BMP280;56608;43.530;-5.652;2022-08-11T06:54:17;101008.09;;;23.90
69415;BMP280;56608;43.530;-5.652;2022-08-11T06:55:21;101008.53;;;23.94
69415;BMP280;56608;43.530;-5.652;2022-08-11T06:56:40;101009.72;;;23.98
69415;BMP280;56608;43.530;-5.652;2022-08-11T06:57:59;101006.09;;;24.03
69415;BMP280;56608;43.530;-5.652;2022-08-11T06:59:19;101008.84;;;24.03
69415;BMP280;56608;43.530;-5.652;2022-08-11T07:00:39;101022.28;;;24.07
69415;BMP280;56608;43.530;-5.652;2022-08-11T07:02:59;101015.19;;;23.98
69415;BMP280;56608;43.530;-5.652;2022-08-11T07:04:04;101009.91;;;24.00
69415;BMP280;56608;43.530;-5.652;2022-08-11T07:13:58;101024.81;;;24.05
69415;BMP280;56608;43.530;-5.652;2022-08-11T07:15:18;101018.25;;;24.08
69415;BMP280;56608;43.530;-5.652;2022-08-11T07:16:38;101022.28;;;24.07
69415;BMP280;56608;43.530;-5.652;2022-08-11T07:17:43;101018.25;;;24.08
69415;BMP280;56608;43.530;-5.652;2022-08-11T07:18:48;101023.75;;;24.08
69415;BMP280;56608;43.530;-5.652;2022-08-11T07:20:08;101018.56;;;24.04
69415;BMP280;56608;43.530;-5.652;2022-08-11T07:21:28;101021.25;;;24.10
69415;BMP280;56608;43.530;-5.652;2022-08-11T07:22:55;101018.84;;;24.19
69415;BMP280;56608;43.530;-5.652;2022-08-11T07:24:16;101024.97;;;24.26
69415;BMP280;56608;43.530;-5.652;2022-08-11T07:25:35;101018.66;;;24.31
69415;BMP280;56608;43.530;-5.652;2022-08-11T07:26:56;101021.28;;;24.36
69415;BMP280;56608;43.530;-5.652;2022-08-11T07:28:23;101022.47;;;24.41
69415;BMP280;56608;43.530;-5.652;2022-08-11T07:29:44;101027.41;;;24.42
69415;BMP280;56608;43.530;-5.652;2022-08-11T07:30:45;101028.38;;;24.45
69415;BMP280;56608;43.530;-5.652;2022-08-11T07:31:47;101031.34;;;24.47
69415;BMP280;56608;43.530;-5.652;2022-08-11T07:32:53;101040.75;;;24.51
69415;BMP280;56608;43.530;-5.652;2022-08-11T07:35:14;101029.97;;;24.53
69415;BMP280;56608;43.530;-5.652;2022-08-11T07:36:15;101043.59;;;24.59
69415;BMP280;56608;43.530;-5.652;2022-08-11T07:37:16;101036.50;;;24.63
69415;BMP280;56608;43.530;-5.652;2022-08-11T07:38:21;101042.25;;;24.65
69415;BMP280;56608;43.530;-5.652;2022-08-11T07:39:23;101028.25;;;24.63
69415;BMP280;56608;43.530;-5.652;2022-08-11T07:40:24;101037.50;;;24.66
69415;BMP280;56608;43.530;-5.652;2022-08-11T07:41:25;101042.25;;;24.65
69415;BMP280;56608;43.530;-5.652;2022-08-11T07:42:29;101033.75;;;24.63
69415;BMP280;56608;43.530;-5.652;2022-08-11T07:43:29;101039.91;;;24.70
69415;BMP280;56608;43.530;-5.652;2022-08-11T07:44:30;101045.28;;;24.75
69415;BMP280;56608;43.530;-5.652;2022-08-11T07:45:31;101047.53;;;24.77
69415;BMP280;56608;43.530;-5.652;2022-08-11T07:46:50;101045.72;;;24.79
69415;BMP280;56608;43.530;-5.652;2022-08-11T07:48:10;101047.94;;;24.81
69415;BMP280;56608;43.530;-5.652;2022-08-11T07:49:31;101049.41;;;24.82
69415;BMP280;56608;43.530;-5.652;2022-08-11T07:50:50;101043.25;;;24.89
69415;BMP280;56608;43.530;-5.652;2022-08-11T07:52:09;101043.56;;;24.98
69415;BMP280;56608;43.530;-5.652;2022-08-11T07:53:28;101047.69;;;25.05
69415;BMP280;56608;43.530;-5.652;2022-08-11T07:54:29;101051.06;;;25.11
69415;BMP280;56608;43.530;-5.652;2022-08-11T07:55:30;101045.97;;;25.15
69415;BMP280;56608;43.530;-5.652;2022-08-11T07:56:36;101054.66;;;25.19
69415;BMP280;56608;43.530;-5.652;2022-08-11T07:57:38;101054.94;;;25.15
69415;BMP280;56608;43.530;-5.652;2022-08-11T07:58:57;101055.50;;;25.14
69415;BMP280;56608;43.530;-5.652;2022-08-11T08:00:17;101057.31;;;25.25
69415;BMP280;56608;43.530;-5.652;2022-08-11T08:01:36;101047.09;;;25.33
69415;BMP280;56608;43.530;-5.652;2022-08-11T08:02:55;101048.25;;;25.37
69415;BMP280;56608;43.530;-5.652;2022-08-11T08:04:16;101050.56;;;25.46
69415;BMP280;56608;43.530;-5.652;2022-08-11T08:05:36;101046.97;;;25.51
69415;BMP280;56608;43.530;-5.652;2022-08-11T08:06:55;101052.88;;;25.55
69415;BMP280;56608;43.530;-5.652;2022-08-11T08:08:14;101047.41;;;25.63
69415;BMP280;56608;43.530;-5.652;2022-08-11T08:09:33;101047.16;;;25.53
69415;BMP280;56608;43.530;-5.652;2022-08-11T08:10:53;101046.75;;;25.49
69415;BMP280;56608;43.530;-5.652;2022-08-11T08:12:12;101047.81;;;25.67
69415;BMP280;56608;43.530;-5.652;2022-08-11T08:13:32;101054.41;;;25.64
69415;BMP280;56608;43.530;-5.652;2022-08-11T08:14:52;101049.75;;;25.72
69415;BMP280;56608;43.530;-5.652;2022-08-11T08:16:12;101047.03;;;25.80
69415;BMP280;56608;43.530;-5.652;2022-08-11T08:17:31;101052.59;;;25.87
69415;BMP280;56608;43.530;-5.652;2022-08-11T08:18:58;101050.00;;;25.82
69415;BMP280;56608;43.530;-5.652;2022-08-11T08:19:59;101045.50;;;25.92
69415;BMP280;56608;43.530;-5.652;2022-08-11T08:20:59;101044.09;;;25.98
69415;BMP280;56608;43.530;-5.652;2022-08-11T08:22:11;101054.78;;;26.02
69415;BMP280;56608;43.530;-5.652;2022-08-11T08:23:15;101051.81;;;26.00
69415;BMP280;56608;43.530;-5.652;2022-08-11T08:24:17;101050.72;;;26.03
69415;BMP280;56608;43.530;-5.652;2022-08-11T08:25:19;101051.72;;;26.13
69415;BMP280;56608;43.530;-5.652;2022-08-11T08:26:19;101047.44;;;26.04
69415;BMP280;56608;43.530;-5.652;2022-08-11T08:27:38;101049.88;;;26.16
69415;BMP280;56608;43.530;-5.652;2022-08-11T08:28:39;101055.59;;;26.18
69415;BMP280;56608;43.530;-5.652;2022-08-11T08:29:39;101055.59;;;26.18
69415;BMP280;56608;43.530;-5.652;2022-08-11T08:30:58;101056.28;;;26.31
69415;BMP280;56608;43.530;-5.652;2022-08-11T08:31:59;101055.13;;;26.27
69415;BMP280;56608;43.530;-5.652;2022-08-11T08:33:01;101054.97;;;26.32
69415;BMP280;56608;43.530;-5.652;2022-08-11T08:34:01;101056.28;;;26.39
69415;BMP280;56608;43.530;-5.652;2022-08-11T08:35:02;101042.16;;;26.42
69415;BMP280;56608;43.530;-5.652;2022-08-11T08:36:03;101053.41;;;26.44
69415;BMP280;56608;43.530;-5.652;2022-08-11T08:37:10;101054.34;;;26.47
69415;BMP280;56608;43.530;-5.652;2022-08-11T08:38:11;101058.03;;;26.49
69415;BMP280;56608;43.530;-5.652;2022-08-11T08:39:12;101049.81;;;26.57
69415;BMP280;56608;43.530;-5.652;2022-08-11T08:40:13;101061.06;;;26.67
69415;BMP280;56608;43.530;-5.652;2022-08-11T08:41:16;101056.66;;;26.71
69415;BMP280;56608;43.530;-5.652;2022-08-11T08:42:19;101053.41;;;26.73
69415;BMP280;56608;43.530;-5.652;2022-08-11T08:43:20;101063.72;;;26.80
69415;BMP280;56608;43.530;-5.652;2022-08-11T08:44:21;101061.31;;;26.84
69415;BMP280;56608;43.530;-5.652;2022-08-11T08:45:22;101055.31;;;26.93
69415;BMP280;56608;43.530;-5.652;2022-08-11T08:46:24;101054.44;;;26.98
69415;BMP280;56608;43.530;-5.652;2022-08-11T08:47:26;101056.81;;;27.01
69415;BMP280;56608;43.530;-5.652;2022-08-11T08:48:28;101050.97;;;27.05
69415;BMP280;56608;43.530;-5.652;2022-08-11T08:49:31;101054.47;;;27.05
69415;BMP280;56608;43.530;-5.652;2022-08-11T08:50:34;101050.41;;;27.14
69415;BMP280;56608;43.530;-5.652;2022-08-11T08:51:53;101052.31;;;27.27
69415;BMP280;56608;43.530;-5.652;2022-08-11T08:52:59;101053.63;;;27.33
69415;BMP280;56608;43.530;-5.652;2022-08-11T08:54:05;101050.50;;;27.37
69415;BMP280;56608;43.530;-5.652;2022-08-11T08:55:06;101055.66;;;27.40
69415;BMP280;56608;43.530;-5.652;2022-08-11T08:56:07;101047.34;;;27.48
69415;BMP280;56608;43.530;-5.652;2022-08-11T08:57:08;101047.75;;;27.52
69415;BMP280;56608;43.530;-5.652;2022-08-11T08:58:11;101049.19;;;27.45
69415;BMP280;56608;43.530;-5.652;2022-08-11T08:59:12;101056.19;;;27.46
69415;BMP280;56608;43.530;-5.652;2022-08-11T09:00:14;101052.56;;;27.59
69415;BMP280;56608;43.530;-5.652;2022-08-11T09:01:15;101054.03;;;27.68
69415;BMP280;56608;43.530;-5.652;2022-08-11T09:02:17;101043.16;;;27.70
69415;BMP280;56608;43.530;-5.652;2022-08-11T09:03:19;101049.78;;;27.74
69415;BMP280;56608;43.530;-5.652;2022-08-11T09:04:20;101040.44;;;27.77
69415;BMP280;56608;43.530;-5.652;2022-08-11T09:05:20;101052.34;;;27.87
69415;BMP280;56608;43.530;-5.652;2022-08-11T09:06:22;101046.28;;;27.89
69415;BMP280;56608;43.530;-5.652;2022-08-11T09:07:22;101049.59;;;27.95
69415;BMP280;56608;43.530;-5.652;2022-08-11T09:08:25;101045.38;;;28.01
69415;BMP280;56608;43.530;-5.652;2022-08-11T09:09:27;101048.13;;;27.94
69415;BMP280;56608;43.530;-5.652;2022-08-11T09:10:28;101040.03;;;27.96
69415;BMP280;56608;43.530;-5.652;2022-08-11T09:11:29;101036.53;;;28.10
69415;BMP280;56608;43.530;-5.652;2022-08-11T09:12:49;101042.94;;;28.13
69415;BMP280;56608;43.530;-5.652;2022-08-11T09:13:49;101042.00;;;28.18
69415;BMP280;56608;43.530;-5.652;2022-08-11T09:14:51;101043.84;;;28.23
69415;BMP280;56608;43.530;-5.652;2022-08-11T09:16:02;101048.81;;;28.25
69415;BMP280;56608;43.530;-5.652;2022-08-11T09:17:04;101040.69;;;28.34
69415;BMP280;56608;43.530;-5.652;2022-08-11T09:18:05;101041.22;;;28.40
69415;BMP280;56608;43.530;-5.652;2022-08-11T09:19:06;101046.59;;;28.38
69415;BMP280;56608;43.530;-5.652;2022-08-11T09:20:07;101052.88;;;28.31
69415;BMP280;56608;43.530;-5.652;2022-08-11T09:21:09;101054.00;;;28.28
69415;BMP280;56608;43.530;-5.652;2022-08-11T09:22:10;101050.28;;;28.18
69415;BMP280;56608;43.530;-5.652;2022-08-11T09:23:37;101053.63;;;27.94
69415;BMP280;56608;43.530;-5.652;2022-08-11T09:24:57;101069.66;;;27.65
69415;BMP280;56608;43.530;-5.652;2022-08-11T09:26:16;101063.97;;;27.55
69415;BMP280;56608;43.530;-5.652;2022-08-11T09:27:36;101069.44;;;27.40
69415;BMP280;56608;43.530;-5.652;2022-08-11T09:28:40;101068.69;;;27.32
69415;BMP280;56608;43.530;-5.652;2022-08-11T09:29:41;101071.75;;;27.14
69415;BMP280;56608;43.530;-5.652;2022-08-11T09:30:43;101064.81;;;27.35
69415;BMP280;56608;43.530;-5.652;2022-08-11T09:31:44;101065.50;;;27.13
69415;BMP280;56608;43.530;-5.652;2022-08-11T09:32:45;101079.50;;;27.15
69415;BMP280;56608;43.530;-5.652;2022-08-11T09:33:45;101071.59;;;26.76
69415;BMP280;56608;43.530;-5.652;2022-08-11T09:34:46;101072.69;;;26.73
69415;BMP280;56608;43.530;-5.652;2022-08-11T09:35:49;101076.69;;;26.72
69415;BMP280;56608;43.530;-5.652;2022-08-11T09:36:50;101077.22;;;26.62
69415;BMP280;56608;43.530;-5.652;2022-08-11T09:38:10;101074.22;;;26.89
69415;BMP280;56608;43.530;-5.652;2022-08-11T09:39:30;101073.38;;;27.01
69415;BMP280;56608;43.530;-5.652;2022-08-11T09:40:50;101076.88;;;27.02